Time;durP1;ratioP1;P1;durP2;ratioP2;P2;SDS_P1;SDS_P2;PMS_P1;PMS_P2;Temp;Humidity;BMP_temperature;BMP_pressure;BME280_temperature;BME280_humidity;BME280_pressure;Samples;Min_cycle;Max_cycle;Signal;HPM_P1;HPM_P2
2023/01/15 00:00:39;;;;;;;;;;;;;;;7.13;78.41;99510.74;105168;1288;59631;-73
2023/01/15 00:03:05;;;;;;;;;;;;;;;7.13;78.37;99510.06;105186;1288;61399;-73
2023/01/15 00:05:30;;;;;;;;;;;;;;;7.13;78.33;99505.94;105175;1288;61291;-73
2023/01/15 00:07:55;;;;;;;;;;;;;;;7.14;78.34;99496.52;105143;1291;61359;-73
2023/01/15 00:10:20;;;;;;;;;;;;;;;7.14;78.24;99495.31;105285;1287;59300;-72
2023/01/15 00:12:46;;;;;;;;;;;;;;;7.14;78.12;99488.11;105264;1288;61288;-72
2023/01/15 00:15:11;;;;;;;;;;;;;;;7.14;78.31;99474.92;105229;1291;61278;-72
2023/01/15 00:17:36;;;;;;;;;;;;;;;7.14;78.32;99466.85;104988;1288;61289;-72
2023/01/15 00:20:02;;;;;;;;;;;;;;;7.14;78.33;99467.71;105198;1288;61184;-72
2023/01/15 00:22:28;;;;;;;;;;;;;;;7.14;78.27;99458.62;105138;1291;61257;-72
2023/01/15 00:27:37;;;;;;;;;;;;;;;7.16;78.24;99453.27;105183;1288;70835;-73
2023/01/15 00:30:03;;;;;;;;;;;;;;;7.16;78.18;99447.27;105050;1287;59442;-73
2023/01/15 00:32:28;;;;;;;;;;;;;;;7.17;78.20;99436.64;105006;1293;61238;-72
2023/01/15 00:34:54;;;;;;;;;;;;;;;7.17;78.19;99425.15;105012;1288;60088;-72
2023/01/15 00:37:20;;;;;;;;;;;;;;;7.18;78.14;99415.01;105088;1289;61457;-72
2023/01/15 00:39:47;;;;;;;;;;;;;;;7.19;78.10;99405.90;105120;1288;59722;-73
2023/01/15 00:42:13;;;;;;;;;;;;;;;7.21;78.22;99399.17;105092;1288;61394;-73
2023/01/15 00:44:38;;;;;;;;;;;;;;;7.22;78.14;99400.18;105112;1293;60117;-73
2023/01/15 00:47:05;;;;;;;;;;;;;;;7.24;78.17;99403.75;105126;1288;61089;-73
2023/01/15 00:49:30;;;;;;;;;;;;;;;7.26;78.12;99399.60;105116;1289;61063;-73
2023/01/15 00:51:55;;;;;;;;;;;;;;;7.28;78.09;99394.70;105118;1288;62390;-73
2023/01/15 00:54:21;;;;;;;;;;;;;;;7.30;78.12;99395.17;105202;1289;59235;-73
2023/01/15 00:56:46;;;;;;;;;;;;;;;7.32;78.13;99400.09;105174;1288;61248;-73
2023/01/15 00:59:12;;;;;;;;;;;;;;;7.35;78.15;99401.43;104980;1291;61319;-73
2023/01/15 01:01:37;;;;;;;;;;;;;;;7.38;78.12;99395.53;105050;1288;61312;-73
2023/01/15 01:04:03;;;;;;;;;;;;;;;7.39;78.09;99396.52;105071;1288;59362;-73
2023/01/15 01:06:28;;;;;;;;;;;;;;;7.43;77.97;99401.77;105022;1291;61281;-73
2023/01/15 01:08:54;;;;;;;;;;;;;;;7.44;78.16;99405.49;104943;1291;61367;-73
2023/01/15 01:11:20;;;;;;;;;;;;;;;7.46;78.18;99393.11;105098;1288;59736;-73
2023/01/15 01:13:45;;;;;;;;;;;;;;;7.48;78.19;99393.23;105035;1289;61363;-73
2023/01/15 01:16:21;;;;;;;;;;;;;;;7.49;78.07;99378.64;105186;1288;59947;-73
2023/01/15 01:18:49;;;;;;;;;;;;;;;7.50;78.14;99372.80;105110;1292;68412;-73
2023/01/15 01:21:14;;;;;;;;;;;;;;;7.50;78.04;99366.95;105109;1292;71163;-73
2023/01/15 01:23:40;;;;;;;;;;;;;;;7.51;77.94;99364.69;105265;1288;61330;-73
2023/01/15 01:26:05;;;;;;;;;;;;;;;7.52;77.98;99362.62;105189;1287;59690;-73
2023/01/15 01:28:30;;;;;;;;;;;;;;;7.52;78.04;99354.21;105068;1292;61283;-73
2023/01/15 01:30:56;;;;;;;;;;;;;;;7.53;78.04;99348.02;105089;1288;61066;-73
2023/01/15 01:33:21;;;;;;;;;;;;;;;7.54;78.14;99355.38;105140;1291;61346;-72
2023/01/15 01:35:47;;;;;;;;;;;;;;;7.54;78.08;99347.99;105150;1287;59268;-72
2023/01/15 01:38:12;;;;;;;;;;;;;;;7.55;78.05;99346.27;105135;1289;61262;-73
2023/01/15 01:40:56;;;;;;;;;;;;;;;7.55;78.10;99344.02;105244;1291;67355;-73
2023/01/15 01:43:24;;;;;;;;;;;;;;;7.56;78.04;99339.02;105209;1287;61417;-73
2023/01/15 01:45:49;;;;;;;;;;;;;;;7.58;78.00;99326.81;105159;1291;61256;-73
2023/01/15 01:48:16;;;;;;;;;;;;;;;7.59;77.94;99327.11;105189;1288;61286;-73
2023/01/15 01:50:45;;;;;;;;;;;;;;;7.61;77.97;99328.62;105175;1288;63427;-72
2023/01/15 01:53:17;;;;;;;;;;;;;;;7.62;77.96;99324.30;105187;1288;69002;-73
2023/01/15 01:55:42;;;;;;;;;;;;;;;7.64;78.02;99325.13;105203;1288;72988;-73
2023/01/15 01:58:09;;;;;;;;;;;;;;;7.66;77.93;99317.87;105236;1287;61278;-73
2023/01/15 02:00:40;;;;;;;;;;;;;;;7.68;77.97;99317.14;105079;1288;59379;-73
2023/01/15 02:03:06;;;;;;;;;;;;;;;7.69;78.00;99327.38;105127;1288;74775;-73
2023/01/15 02:05:34;;;;;;;;;;;;;;;7.71;77.80;99322.71;105149;1294;67905;-73
2023/01/15 02:08:08;;;;;;;;;;;;;;;7.72;77.92;99308.44;105184;1288;71388;-73
2023/01/15 02:10:33;;;;;;;;;;;;;;;7.74;77.72;99303.76;105029;1288;59214;-73
2023/01/15 02:13:28;;;;;;;;;;;;;;;7.76;77.93;99291.71;106190;1287;59198;-73
2023/01/15 02:15:58;;;;;;;;;;;;;;;7.78;77.91;99272.80;106168;1287;73482;-73
2023/01/15 02:18:26;;;;;;;;;;;;;;;7.79;77.88;99271.36;106282;1288;67029;-73
2023/01/15 02:20:56;;;;;;;;;;;;;;;7.81;77.72;99278.84;106242;1288;70454;-73
2023/01/15 02:23:42;;;;;;;;;;;;;;;7.84;77.80;99287.52;106161;1291;59069;-74
2023/01/15 02:26:13;;;;;;;;;;;;;;;7.87;77.71;99292.42;106245;1288;59189;-73
2023/01/15 02:28:45;;;;;;;;;;;;;;;7.90;77.81;99291.49;106261;1288;73667;-74
2023/01/15 02:31:23;;;;;;;;;;;;;;;7.93;77.90;99284.55;106178;1288;67965;-73
2023/01/15 02:33:57;;;;;;;;;;;;;;;7.95;77.88;99276.77;106181;1288;70668;-73
2023/01/15 02:36:25;;;;;;;;;;;;;;;7.97;77.83;99269.00;106056;1293;59014;-73
2023/01/15 02:39:02;;;;;;;;;;;;;;;7.99;77.88;99264.65;106125;1289;59074;-73
2023/01/15 02:41:33;;;;;;;;;;;;;;;8.01;77.87;99262.38;106132;1288;73356;-73
2023/01/15 02:44:02;;;;;;;;;;;;;;;8.02;77.85;99253.93;106098;1290;67900;-73
2023/01/15 02:46:30;;;;;;;;;;;;;;;8.04;77.80;99246.85;106244;1288;71379;-73
2023/01/15 02:48:56;;;;;;;;;;;;;;;8.06;77.88;99251.09;105932;1287;360131;-73
2023/01/15 02:51:24;;;;;;;;;;;;;;;8.08;77.93;99252.07;106300;1288;58948;-74
2023/01/15 02:53:52;;;;;;;;;;;;;;;8.09;77.85;99248.93;106141;1288;73328;-73
2023/01/15 02:56:21;;;;;;;;;;;;;;;8.11;77.88;99254.89;106233;1288;68098;-74
2023/01/15 02:58:52;;;;;;;;;;;;;;;8.12;77.90;99251.09;106108;1293;71622;-74
2023/01/15 03:01:19;;;;;;;;;;;;;;;8.12;77.83;99247.64;106269;1288;59568;-73
2023/01/15 03:03:44;;;;;;;;;;;;;;;8.13;77.94;99248.65;106101;1288;59334;-74
2023/01/15 03:06:28;;;;;;;;;;;;;;;8.14;77.95;99250.49;106285;1288;59140;-73
2023/01/15 03:08:54;;;;;;;;;;;;;;;8.16;77.95;99249.60;106249;1288;66490;-73
2023/01/15 03:11:22;;;;;;;;;;;;;;;8.16;78.01;99249.58;106099;1288;59556;-73
2023/01/15 03:14:00;;;;;;;;;;;;;;;8.17;78.03;99247.85;106247;1288;59280;-73
2023/01/15 03:16:35;;;;;;;;;;;;;;;8.17;78.04;99236.67;106097;1288;59413;-73
2023/01/15 03:19:03;;;;;;;;;;;;;;;8.19;78.08;99228.92;106278;1288;74642;-73
2023/01/15 03:21:37;;;;;;;;;;;;;;;8.19;78.14;99231.84;106299;1288;67457;-73
2023/01/15 03:24:08;;;;;;;;;;;;;;;8.20;78.14;99230.95;106246;1288;71894;-73
2023/01/15 03:26:35;;;;;;;;;;;;;;;8.20;78.20;99220.83;106077;1288;59361;-73
2023/01/15 03:29:04;;;;;;;;;;;;;;;8.19;78.28;99212.44;106264;1288;59554;-73
2023/01/15 03:31:33;;;;;;;;;;;;;;;8.17;78.25;99217.30;106112;1291;74611;-73
2023/01/15 03:33:58;;;;;;;;;;;;;;;8.15;78.17;99209.46;106084;1289;68701;-73
2023/01/15 03:36:23;;;;;;;;;;;;;;;8.12;78.32;99207.65;106073;1288;59325;-74
2023/01/15 03:38:49;;;;;;;;;;;;;;;8.10;78.28;99215.43;106182;1289;59585;-73
2023/01/15 03:41:15;;;;;;;;;;;;;;;8.07;78.28;99204.54;106271;1288;59068;-73
2023/01/15 03:43:58;;;;;;;;;;;;;;;8.05;78.30;99209.20;106162;1291;59163;-74
2023/01/15 03:46:26;;;;;;;;;;;;;;;8.04;78.29;99210.29;106135;1294;67340;-73
2023/01/15 03:49:01;;;;;;;;;;;;;;;8.03;78.36;99209.79;106203;1289;73155;-73
2023/01/15 03:51:37;;;;;;;;;;;;;;;8.04;78.32;99202.76;106221;1288;58926;-73
2023/01/15 03:54:08;;;;;;;;;;;;;;;8.03;78.30;99186.98;106204;1288;58879;-73
2023/01/15 03:56:47;;;;;;;;;;;;;;;;;;;;;
2023/01/15 03:59:41;;;;;;;;;;;;;;;8.03;78.29;99177.89;106081;1291;67311;-74
2023/01/15 04:02:08;;;;;;;;;;;;;;;8.03;78.23;99174.11;106042;1291;70621;-73
2023/01/15 04:04:34;;;;;;;;;;;;;;;8.03;78.31;99172.55;106049;1288;59485;-73
2023/01/15 04:07:00;;;;;;;;;;;;;;;8.03;78.17;99162.43;106056;1288;59408;-74
2023/01/15 04:09:28;;;;;;;;;;;;;;;8.04;78.24;99154.70;106172;1288;59210;-73
2023/01/15 04:12:02;;;;;;;;;;;;;;;8.04;78.12;99150.40;106131;1289;66748;-73
2023/01/15 04:14:31;;;;;;;;;;;;;;;8.05;78.17;99155.16;106136;1287;71061;-74
2023/01/15 04:16:59;;;;;;;;;;;;;;;8.07;78.11;99157.36;106077;1291;59344;-74
2023/01/15 04:19:32;;;;;;;;;;;;;;;8.08;78.02;99150.29;106261;1289;59534;-73
2023/01/15 04:21:57;;;;;;;;;;;;;;;8.09;78.09;99147.16;105956;1291;73608;-73
2023/01/15 04:24:28;;;;;;;;;;;;;;;8.10;78.17;99150.73;105884;1291;59195;-73
2023/01/15 04:26:55;;;;;;;;;;;;;;;8.11;78.13;99151.73;105880;1291;72726;-73
2023/01/15 04:29:22;;;;;;;;;;;;;;;8.13;78.06;99143.27;105888;1291;59423;-74
2023/01/15 04:31:56;;;;;;;;;;;;;;;8.14;78.06;99137.07;105872;1291;59233;-73
2023/01/15 04:34:23;;;;;;;;;;;;;;;8.15;78.11;99130.33;105909;1291;72591;-73
2023/01/15 04:36:53;;;;;;;;;;;;;;;8.16;78.10;99130.81;105937;1291;67967;-73
2023/01/15 04:39:23;;;;;;;;;;;;;;;8.17;78.09;99125.83;105877;1291;70218;-73
2023/01/15 04:44:33;;;;;;;;;;;;;;;8.15;78.24;99128.60;105805;1291;60118;-74
2023/01/15 04:46:58;;;;;;;;;;;;;;;8.15;78.26;99134.12;105841;1290;59038;-74
2023/01/15 04:49:25;;;;;;;;;;;;;;;8.13;78.27;99126.09;105905;1291;59197;-74
2023/01/15 04:51:50;;;;;;;;;;;;;;;8.12;78.41;99123.54;105957;1290;59134;-73
2023/01/15 04:54:16;;;;;;;;;;;;;;;8.12;78.45;99121.52;105974;1290;59369;-73
2023/01/15 04:56:52;;;;;;;;;;;;;;;8.11;78.46;99117.42;105916;1291;59063;-73
2023/01/15 04:59:22;;;;;;;;;;;;;;;8.09;78.43;99116.95;105922;1288;73614;-73
2023/01/15 05:01:50;;;;;;;;;;;;;;;8.08;78.49;99110.13;106178;1289;66431;-73
2023/01/15 05:04:16;;;;;;;;;;;;;;;8.07;78.64;99094.38;106166;1291;72096;-74
2023/01/15 05:06:41;;;;;;;;;;;;;;;8.05;78.61;99104.38;106135;1290;59080;-74
2023/01/15 05:09:27;;;;;;;;;;;;;;;8.04;78.69;99108.87;106185;1288;59319;-74
2023/01/15 05:11:59;;;;;;;;;;;;;;;8.01;78.72;99108.27;105974;1292;72340;-74
2023/01/15 05:17:30;;;;;;;;;;;;;;;7.96;78.89;99102.58;106143;1289;71869;-73
2023/01/15 05:20:08;;;;;;;;;;;;;;;;;;;;;
2023/01/15 05:22:34;;;;;;;;;;;;;;;7.89;78.92;99112.57;105578;1295;59194;-73
2023/01/15 05:25:02;;;;;;;;;;;;;;;7.86;79.00;99111.98;105571;1294;74663;-74
2023/01/15 05:27:27;;;;;;;;;;;;;;;7.81;79.07;99115.39;105637;1294;59491;-73
2023/01/15 05:29:52;;;;;;;;;;;;;;;7.77;79.18;99113.11;105545;1295;59144;-73
2023/01/15 05:32:18;;;;;;;;;;;;;;;7.73;79.21;99114.95;105650;1293;59459;-73
2023/01/15 05:34:43;;;;;;;;;;;;;;;7.68;79.19;99111.48;105678;1294;59236;-73
2023/01/15 05:37:08;;;;;;;;;;;;;;;7.65;79.28;99111.05;105502;1294;59352;-73
2023/01/15 05:39:34;;;;;;;;;;;;;;;7.63;79.40;99111.63;105614;1294;59607;-73
2023/01/15 05:41:59;;;;;;;;;;;;;;;7.61;79.60;99112.02;105485;1296;59224;-73
2023/01/15 05:44:25;;;;;;;;;;;;;;;7.60;79.53;99113.25;105701;1294;58475;-74
2023/01/15 05:46:52;;;;;;;;;;;;;;;7.59;79.54;99112.75;105619;1298;67581;-73
2023/01/15 05:49:28;;;;;;;;;;;;;;;7.59;79.63;99110.53;105617;1294;59433;-73
2023/01/15 05:51:54;;;;;;;;;;;;;;;7.58;79.77;99109.70;106051;1291;59662;-73
2023/01/15 05:54:21;;;;;;;;;;;;;;;7.56;79.67;99114.90;106088;1291;59124;-73
2023/01/15 05:56:47;;;;;;;;;;;;;;;7.56;79.73;99115.42;105963;1290;59714;-74
2023/01/15 05:59:15;;;;;;;;;;;;;;;7.54;79.82;99103.98;106018;1290;59073;-73
2023/01/15 06:01:40;;;;;;;;;;;;;;;7.53;79.87;99100.06;105996;1292;72519;-74
2023/01/15 06:04:06;;;;;;;;;;;;;;;7.54;79.99;99097.98;106121;1289;59185;-74
2023/01/15 06:06:32;;;;;;;;;;;;;;;7.55;79.90;99100.87;106059;1290;59173;-73
2023/01/15 06:08:57;;;;;;;;;;;;;;;7.56;79.91;99093.63;106185;1290;59048;-73
2023/01/15 06:11:23;;;;;;;;;;;;;;;7.58;80.03;99090.17;106037;1291;59448;-73
2023/01/15 06:13:48;;;;;;;;;;;;;;;7.58;79.98;99088.95;106089;1290;59039;-73
2023/01/15 06:16:14;;;;;;;;;;;;;;;7.58;79.97;99087.08;106034;1289;58999;-73
2023/01/15 06:18:39;;;;;;;;;;;;;;;7.58;79.98;99086.04;106056;1290;59862;-73
2023/01/15 06:21:06;;;;;;;;;;;;;;;7.57;80.14;99081.79;106066;1293;59094;-73
2023/01/15 06:23:32;;;;;;;;;;;;;;;7.57;80.12;99086.75;106045;1290;59359;-73
2023/01/15 06:26:00;;;;;;;;;;;;;;;7.58;80.10;99085.18;106066;1291;58993;-73
2023/01/15 06:28:26;;;;;;;;;;;;;;;7.58;80.09;99090.50;106158;1289;59313;-73
2023/01/15 06:30:51;;;;;;;;;;;;;;;7.58;80.16;99084.83;106039;1291;59474;-73
2023/01/15 06:33:17;;;;;;;;;;;;;;;7.59;80.10;99084.29;106151;1290;59336;-73
2023/01/15 06:35:42;;;;;;;;;;;;;;;7.59;80.25;99087.55;106316;1291;59414;-73
2023/01/15 06:38:07;;;;;;;;;;;;;;;7.59;80.17;99089.10;106254;1288;59131;-73
2023/01/15 06:40:32;;;;;;;;;;;;;;;7.58;80.28;99081.05;106182;1287;59161;-74
2023/01/15 06:48:26;;;;;;;;;;;;;;;7.59;80.40;99076.91;106237;1290;58903;-74
2023/01/15 06:50:52;;;;;;;;;;;;;;;7.60;80.39;99081.87;106256;1294;59005;-74
2023/01/15 06:53:18;;;;;;;;;;;;;;;7.62;80.52;99087.99;106135;1289;59041;-74
2023/01/15 06:55:43;;;;;;;;;;;;;;;7.63;80.58;99081.09;106274;1291;59452;-73
2023/01/15 06:58:08;;;;;;;;;;;;;;;7.63;80.73;99083.85;105812;1288;164163;-74
2023/01/15 07:00:34;;;;;;;;;;;;;;;7.63;80.63;99082.64;106263;1289;59182;-74
2023/01/15 07:02:59;;;;;;;;;;;;;;;7.63;80.61;99082.13;106085;1289;59468;-73
2023/01/15 07:05:25;;;;;;;;;;;;;;;7.63;80.71;99082.64;105207;1289;59720;-73
2023/01/15 07:07:50;;;;;;;;;;;;;;;7.65;80.81;99076.58;105195;1289;62086;-72
2023/01/15 07:10:16;;;;;;;;;;;;;;;7.66;80.77;99083.42;105180;1289;61297;-72
2023/01/15 07:12:41;;;;;;;;;;;;;;;7.66;80.77;99087.20;105089;1288;61377;-73
2023/01/15 07:15:07;;;;;;;;;;;;;;;7.66;80.97;99084.27;105160;1288;61124;-73
2023/01/15 07:17:32;;;;;;;;;;;;;;;7.66;81.00;99083.75;105227;1290;61392;-73
2023/01/15 07:19:58;;;;;;;;;;;;;;;7.67;80.99;99081.67;105117;1292;61784;-73
2023/01/15 07:22:23;;;;;;;;;;;;;;;7.68;81.03;99078.06;105105;1287;61390;-73
2023/01/15 07:24:48;;;;;;;;;;;;;;;7.69;81.03;99080.08;105239;1288;60571;-73
2023/01/15 07:27:14;;;;;;;;;;;;;;;7.69;81.10;99075.27;105148;1292;62100;-72
2023/01/15 07:29:39;;;;;;;;;;;;;;;7.71;81.11;99080.19;105195;1292;61278;-73
2023/01/15 07:32:04;;;;;;;;;;;;;;;7.72;81.20;99074.00;105241;1289;61229;-72
2023/01/15 07:34:30;;;;;;;;;;;;;;;7.72;81.16;99077.59;106229;1288;58729;-73
2023/01/15 07:36:55;;;;;;;;;;;;;;;7.73;81.24;99079.09;106191;1291;73660;-73
2023/01/15 07:39:20;;;;;;;;;;;;;;;7.75;81.24;99078.36;106238;1289;58996;-73
2023/01/15 07:50:00;;;;;;;;;;;;;;;7.83;81.53;99078.44;105143;1288;71513;-73
2023/01/15 07:52:25;;;;;;;;;;;;;;;7.83;81.45;99073.80;105164;1292;61279;-73
2023/01/15 07:54:51;;;;;;;;;;;;;;;7.84;81.52;99079.27;105207;1292;61561;-73
2023/01/15 07:57:19;;;;;;;;;;;;;;;7.85;81.59;99081.45;105170;1290;61324;-73
2023/01/15 07:59:44;;;;;;;;;;;;;;;7.86;81.50;99078.00;105229;1292;59246;-73
2023/01/15 08:02:10;;;;;;;;;;;;;;;7.87;81.72;99077.11;105286;1292;59402;-73
2023/01/15 08:04:36;;;;;;;;;;;;;;;7.88;81.78;99077.07;105177;1290;61226;-73
2023/01/15 08:07:02;;;;;;;;;;;;;;;7.90;81.79;99071.86;105205;1291;59519;-72
2023/01/15 08:09:28;;;;;;;;;;;;;;;7.93;81.78;99066.80;104991;1290;66887;-72
2023/01/15 08:17:22;;;;;;;;;;;;;;;7.99;82.00;99065.77;105216;1290;62976;-73
2023/01/15 08:19:48;;;;;;;;;;;;;;;8.00;82.10;99067.80;105062;1290;59422;-73
2023/01/15 08:22:13;;;;;;;;;;;;;;;8.01;82.00;99067.09;105189;1293;61913;-73
2023/01/15 08:24:38;;;;;;;;;;;;;;;8.02;82.01;99063.47;105165;1292;61288;-73
2023/01/15 08:27:04;;;;;;;;;;;;;;;8.01;82.06;99063.82;105083;1289;61267;-73
2023/01/15 08:29:29;;;;;;;;;;;;;;;8.02;82.13;99065.16;104925;1297;72793;-73
2023/01/15 08:31:55;;;;;;;;;;;;;;;8.04;82.05;99066.48;105011;1291;61235;-72
2023/01/15 08:34:20;;;;;;;;;;;;;;;8.05;82.02;99066.28;105032;1289;61236;-73
2023/01/15 08:36:46;;;;;;;;;;;;;;;8.06;82.23;99067.80;105111;1289;61199;-73
2023/01/15 08:39:11;;;;;;;;;;;;;;;8.07;82.20;99069.66;105224;1289;61313;-73
2023/01/15 08:41:37;;;;;;;;;;;;;;;8.08;82.26;99074.41;105147;1289;59683;-73
2023/01/15 08:44:02;;;;;;;;;;;;;;;8.09;82.20;99074.89;105088;1288;61364;-73
2023/01/15 08:46:27;;;;;;;;;;;;;;;8.11;82.33;99081.38;105183;1289;61348;-73
2023/01/15 08:48:53;;;;;;;;;;;;;;;8.11;82.32;99078.96;105178;1288;61381;-73
2023/01/15 08:51:18;;;;;;;;;;;;;;;8.11;82.35;99079.29;106126;1288;59476;-73
2023/01/15 08:53:44;;;;;;;;;;;;;;;8.12;82.46;99086.84;105317;1288;61263;-73
2023/01/15 08:56:16;;;;;;;;;;;;;;;8.13;82.44;99095.73;105229;1289;63204;-72
2023/01/15 08:58:41;;;;;;;;;;;;;;;8.13;82.51;99131.07;105158;1288;61174;-72
2023/01/15 09:01:08;;;;;;;;;;;;;;;8.14;82.59;99147.52;105244;1289;61361;-73
2023/01/15 09:03:34;;;;;;;;;;;;;;;8.07;81.95;99153.40;105020;1289;62186;-73
2023/01/15 09:06:01;;;;;;;;;;;;;;;7.89;81.64;99151.16;105175;1289;59632;-72
2023/01/15 09:08:27;;;;;;;;;;;;;;;7.72;81.81;99175.02;105131;1289;61276;-73
2023/01/15 09:10:57;;;;;;;;;;;;;;;7.58;81.68;99180.69;105182;1287;61240;-73
2023/01/15 09:13:22;;;;;;;;;;;;;;;7.42;81.73;99185.24;105164;1291;72612;-73
2023/01/15 09:15:47;;;;;;;;;;;;;;;7.29;81.78;99198.27;105146;1288;61285;-73
2023/01/15 09:18:17;;;;;;;;;;;;;;;7.19;81.89;99206.59;105098;1294;61318;-72
2023/01/15 09:20:43;;;;;;;;;;;;;;;7.10;81.87;99210.77;105152;1288;63740;-73
2023/01/15 09:23:08;;;;;;;;;;;;;;;6.99;81.91;99213.92;105059;1292;61353;-73
2023/01/15 09:25:33;;;;;;;;;;;;;;;6.94;81.96;99214.22;105041;1289;61227;-73
2023/01/15 09:27:59;;;;;;;;;;;;;;;6.87;81.91;99213.71;105177;1289;61257;-73
2023/01/15 09:30:24;;;;;;;;;;;;;;;6.78;81.83;99221.11;104984;1291;61255;-73
2023/01/15 09:32:49;;;;;;;;;;;;;;;6.70;81.83;99225.09;105219;1288;61283;-73
2023/01/15 09:35:15;;;;;;;;;;;;;;;6.63;81.86;99232.26;105204;1288;61240;-73
2023/01/15 09:37:40;;;;;;;;;;;;;;;6.56;81.86;99237.38;105193;1288;61269;-73
2023/01/15 09:40:08;;;;;;;;;;;;;;;6.53;81.99;99240.35;105091;1294;60725;-73
2023/01/15 09:42:37;;;;;;;;;;;;;;;6.51;82.03;99239.37;106148;1291;59172;-73
2023/01/15 09:45:18;;;;;;;;;;;;;;;6.47;82.01;99243.23;105351;1289;72623;-73
2023/01/15 09:47:49;;;;;;;;;;;;;;;6.42;81.91;99239.39;105178;1289;68463;-73
2023/01/15 09:50:21;;;;;;;;;;;;;;;6.37;81.89;99242.58;105114;1288;71889;-73
2023/01/15 09:52:49;;;;;;;;;;;;;;;6.34;81.97;99252.23;105181;1288;59202;-75
2023/01/15 09:55:14;;;;;;;;;;;;;;;6.31;82.01;99262.55;105137;1288;60963;-75
2023/01/15 09:57:41;;;;;;;;;;;;;;;6.28;81.98;99260.05;105205;1288;61384;-73
2023/01/15 10:00:12;;;;;;;;;;;;;;;6.27;82.11;99262.63;105218;1288;61243;-72
2023/01/15 10:02:46;;;;;;;;;;;;;;;6.27;82.15;99267.77;105023;1291;73424;-72
2023/01/15 10:05:18;;;;;;;;;;;;;;;6.28;82.24;99267.06;105109;1294;61090;-72
2023/01/15 10:07:49;;;;;;;;;;;;;;;6.30;82.17;99267.71;105219;1290;60255;-72
2023/01/15 10:10:19;;;;;;;;;;;;;;;6.29;82.21;99258.15;105190;1288;75834;-72
2023/01/15 10:12:47;;;;;;;;;;;;;;;6.30;82.20;99252.14;105071;1288;67746;-72
2023/01/15 10:15:12;;;;;;;;;;;;;;;6.34;82.32;99253.61;105219;1288;71549;-73
2023/01/15 10:17:57;;;;;;;;;;;;;;;6.36;82.27;99261.26;105162;1290;60130;-73
2023/01/15 10:20:48;;;;;;;;;;;;;;;6.36;82.22;99261.08;105015;1294;61155;-73
2023/01/15 10:23:28;;;;;;;;;;;;;;;6.36;82.25;99276.31;105060;1288;75662;-73
2023/01/15 10:25:59;;;;;;;;;;;;;;;6.35;82.18;99280.11;105148;1291;69445;-72
2023/01/15 10:28:27;;;;;;;;;;;;;;;6.34;82.25;99281.33;105088;1288;71671;-72
2023/01/15 10:30:54;;;;;;;;;;;;;;;6.34;82.34;99272.23;105171;1287;61292;-72
2023/01/15 10:33:37;;;;;;;;;;;;;;;6.35;82.29;99265.04;105203;1291;61410;-72
2023/01/15 10:36:09;;;;;;;;;;;;;;;6.38;82.39;99260.20;105187;1287;74213;-72
2023/01/15 10:38:39;;;;;;;;;;;;;;;6.40;82.42;99256.38;105140;1288;66646;-72
2023/01/15 10:41:07;;;;;;;;;;;;;;;6.44;82.41;99251.52;105200;1288;72702;-72
2023/01/15 10:43:36;;;;;;;;;;;;;;;6.45;82.46;99255.58;105153;1289;61170;-73
2023/01/15 10:46:09;;;;;;;;;;;;;;;6.48;82.50;99254.66;105182;1288;60040;-73
2023/01/15 10:48:40;;;;;;;;;;;;;;;6.51;82.48;99260.27;105201;1288;72941;-73
2023/01/15 10:51:13;;;;;;;;;;;;;;;6.52;82.49;99281.64;105190;1287;69538;-73
2023/01/15 10:53:59;;;;;;;;;;;;;;;6.52;82.43;99290.03;105181;1292;73403;-72
2023/01/15 10:56:28;;;;;;;;;;;;;;;6.51;82.37;99287.31;105196;1287;61237;-72
2023/01/15 10:58:56;;;;;;;;;;;;;;;6.47;82.29;99289.78;105307;1288;61124;-72
2023/01/15 11:01:24;;;;;;;;;;;;;;;6.45;82.33;99289.83;105276;1288;73779;-72
2023/01/15 11:03:50;;;;;;;;;;;;;;;6.45;82.39;99289.84;105285;1288;69059;-73
2023/01/15 11:06:18;;;;;;;;;;;;;;;6.44;82.36;99283.68;105258;1287;61315;-73
2023/01/15 11:08:49;;;;;;;;;;;;;;;6.45;82.38;99279.55;105213;1288;61100;-73
2023/01/15 11:11:20;;;;;;;;;;;;;;;6.45;82.47;99284.85;105227;1290;59555;-73
2023/01/15 11:19:37;;;;;;;;;;;;;;;6.50;82.53;99272.61;105250;1288;71361;-73
2023/01/15 11:22:13;;;;;;;;;;;;;;;6.52;82.56;99270.68;105307;1287;60683;-73
2023/01/15 11:24:46;;;;;;;;;;;;;;;6.54;82.55;99272.86;105276;1288;61096;-72
2023/01/15 11:27:23;;;;;;;;;;;;;;;6.55;82.57;99277.27;105210;1288;73050;-72
2023/01/15 11:29:53;;;;;;;;;;;;;;;6.59;82.57;99276.19;105058;1288;67999;-73
2023/01/15 11:32:29;;;;;;;;;;;;;;;6.59;82.55;99273.45;105268;1288;71850;-73
2023/01/15 11:34:56;;;;;;;;;;;;;;;6.59;82.51;99270.20;105158;1291;61240;-73
2023/01/15 11:37:22;;;;;;;;;;;;;;;6.61;82.58;99260.91;105218;1288;61207;-73
2023/01/15 11:39:54;;;;;;;;;;;;;;;6.61;82.57;99272.53;105116;1288;59474;-73
2023/01/15 11:50:46;;;;;;;;;;;;;;;6.51;82.37;99287.46;105195;1288;59628;-72
2023/01/15 11:53:20;;;;;;;;;;;;;;;6.49;82.41;99291.64;105216;1288;73398;-72
2023/01/15 11:55:54;;;;;;;;;;;;;;;6.45;82.33;99296.16;105267;1288;69086;-72
2023/01/15 11:58:20;;;;;;;;;;;;;;;6.42;82.35;99285.44;105255;1287;70718;-72
2023/01/15 12:00:49;;;;;;;;;;;;;;;6.38;82.33;99279.88;106199;1288;59243;-73
2023/01/15 12:03:17;;;;;;;;;;;;;;;6.36;82.37;99276.15;106197;1288;59234;-73
2023/01/15 12:06:01;;;;;;;;;;;;;;;6.34;82.46;99277.38;106242;1288;74668;-73
2023/01/15 12:08:32;;;;;;;;;;;;;;;6.34;82.45;99295.36;106221;1287;67628;-73
2023/01/15 12:11:10;;;;;;;;;;;;;;;6.33;82.46;99294.52;106206;1287;71677;-73
2023/01/15 12:13:35;;;;;;;;;;;;;;;6.32;82.42;99294.87;105742;1288;60714;-73
2023/01/15 12:16:16;;;;;;;;;;;;;;;6.31;82.42;99301.05;105246;1288;61275;-73
2023/01/15 12:18:44;;;;;;;;;;;;;;;6.31;82.46;99300.72;105264;1288;73759;-72
2023/01/15 12:21:20;;;;;;;;;;;;;;;6.30;82.48;99298.50;105259;1287;67672;-72
2023/01/15 12:23:48;;;;;;;;;;;;;;;6.27;82.34;99305.23;105233;1289;72014;-72
2023/01/15 12:26:49;;;;;;;;;;;;;;;6.24;82.43;99310.80;105224;1288;59627;-72
2023/01/15 12:29:23;;;;;;;;;;;;;;;6.21;82.43;99303.69;104478;1297;61166;-72
2023/01/15 12:32:04;;;;;;;;;;;;;;;6.20;82.49;99305.59;104505;1295;73527;-72
2023/01/15 12:34:31;;;;;;;;;;;;;;;6.19;82.46;99304.92;104308;1297;67523;-72
2023/01/15 12:37:43;;;;;;;;;;;;;;;;;;;;;
2023/01/15 12:40:20;;;;;;;;;;;;;;;6.13;82.49;99314.27;103959;1303;61084;-72
2023/01/15 12:45:40;;;;;;;;;;;;;;;6.08;82.47;99321.38;103890;1306;73311;-72
2023/01/15 12:48:14;;;;;;;;;;;;;;;6.07;82.47;99323.80;103861;1305;68897;-72
2023/01/15 12:50:43;;;;;;;;;;;;;;;6.06;82.59;99326.38;103805;1306;71171;-72
2023/01/15 12:53:16;;;;;;;;;;;;;;;6.04;82.56;99319.41;103830;1306;60709;-73
2023/01/15 12:55:56;;;;;;;;;;;;;;;6.04;82.57;99322.33;103885;1305;61374;-72
2023/01/15 12:58:24;;;;;;;;;;;;;;;6.01;82.46;99316.04;103866;1305;73411;-72
2023/01/15 13:00:49;;;;;;;;;;;;;;;5.97;82.42;99321.23;103856;1306;67630;-72
2023/01/15 13:03:29;;;;;;;;;;;;;;;5.95;82.48;99316.82;103957;1299;59482;-73
2023/01/15 13:05:59;;;;;;;;;;;;;;;5.93;82.48;99318.06;104243;1299;60623;-73
2023/01/15 13:08:36;;;;;;;;;;;;;;;5.91;82.46;99316.89;104186;1300;59212;-73
2023/01/15 13:11:02;;;;;;;;;;;;;;;5.92;82.58;99317.73;104419;1299;74212;-72
2023/01/15 13:13:56;;;;;;;;;;;;;;;5.91;82.51;99321.67;104353;1297;59773;-73
2023/01/15 13:16:25;;;;;;;;;;;;;;;5.93;82.53;99326.27;104602;1288;73514;-73
2023/01/15 13:19:04;;;;;;;;;;;;;;;5.91;82.49;99327.49;105119;1287;59475;-73
2023/01/15 13:21:31;;;;;;;;;;;;;;;5.91;82.51;99331.27;105240;1288;61167;-73
2023/01/15 13:24:14;;;;;;;;;;;;;;;5.92;82.54;99334.16;105256;1288;74726;-73
2023/01/15 13:26:48;;;;;;;;;;;;;;;5.92;82.58;99336.21;105180;1288;69178;-72
2023/01/15 13:29:24;;;;;;;;;;;;;;;5.92;82.57;99333.12;105239;1288;71869;-72
2023/01/15 13:31:53;;;;;;;;;;;;;;;5.92;82.58;99326.98;105208;1287;61108;-73
2023/01/15 13:34:30;;;;;;;;;;;;;;;5.90;82.47;99325.13;105267;1288;61073;-72
2023/01/15 13:37:01;;;;;;;;;;;;;;;5.89;82.52;99336.42;105138;1287;73314;-72
2023/01/15 13:39:32;;;;;;;;;;;;;;;5.89;82.58;99336.59;105257;1288;68093;-73
2023/01/15 13:44:50;;;;;;;;;;;;;;;5.86;82.46;99348.59;105228;1288;59393;-72
2023/01/15 13:47:26;;;;;;;;;;;;;;;5.83;82.44;99342.66;105302;1288;61176;-72